Time;durP1;ratioP1;P1;durP2;ratioP2;P2;SDS_P1;SDS_P2;PMS_P1;PMS_P2;Temp;Humidity;BMP_temperature;BMP_pressure;BME280_temperature;BME280_humidity;BME280_pressure;Samples;Min_cycle;Max_cycle;Signal;HPM_P1;HPM_P2
2021/03/08 00:00:32;;;;;;;13.00;8.67;;;1.40;56.70;;;2.10;47.82;97900.25;5006770;28;20239;-34
2021/03/08 00:03:02;;;;;;;11.13;7.43;;;1.50;57.00;;;2.08;48.23;97899.50;5007111;28;20339;-34
2021/03/08 00:05:29;;;;;;;12.33;7.33;;;1.40;56.70;;;2.06;47.20;97904.84;5006412;28;20049;-33
2021/03/08 00:07:57;;;;;;;12.67;8.43;;;1.30;57.00;;;2.03;48.02;97898.97;5007037;28;20080;-34
2021/03/08 00:10:24;;;;;;;15.07;9.10;;;1.30;56.90;;;2.00;47.92;97902.63;5005822;28;20053;-34
2021/03/08 00:12:52;;;;;;;14.93;8.73;;;1.20;57.20;;;1.92;48.36;97892.63;5007710;28;20064;-33
2021/03/08 00:15:21;;;;;;;15.67;8.63;;;1.10;58.20;;;1.85;47.75;97895.75;5004943;28;20064;-34
2021/03/08 00:17:51;;;;;;;13.87;9.43;;;0.90;58.60;;;1.79;48.40;97891.75;5006692;28;20242;-34
2021/03/08 00:20:23;;;;;;;13.07;8.60;;;0.90;58.50;;;1.75;48.27;97892.91;5006441;28;20377;-33
2021/03/08 00:22:52;;;;;;;14.37;8.77;;;0.90;58.40;;;1.72;47.97;97898.34;5005714;28;20048;-33
2021/03/08 00:25:24;;;;;;;14.13;8.73;;;0.90;58.50;;;1.69;48.51;97898.56;5005384;28;20065;-33
2021/03/08 00:27:52;;;;;;;12.33;8.53;;;0.90;58.40;;;1.66;48.64;97894.31;5006280;28;20109;-33
2021/03/08 00:30:21;;;;;;;12.63;8.47;;;0.90;58.00;;;1.68;48.16;97891.59;5006054;28;20062;-33
2021/03/08 00:32:48;;;;;;;13.63;8.47;;;0.90;58.10;;;1.66;48.93;97888.25;5007506;28;20057;-33
2021/03/08 00:35:17;;;;;;;12.63;9.20;;;0.90;58.10;;;1.67;48.35;97895.19;5007175;28;20063;-33
2021/03/08 00:37:46;;;;;;;14.20;9.57;;;0.90;57.70;;;1.67;48.49;97889.94;5006234;28;20057;-33
2021/03/08 00:40:17;;;;;;;14.27;8.97;;;0.90;57.50;;;1.66;48.73;97881.19;5006660;28;20046;-33
2021/03/08 00:42:45;;;;;;;13.13;7.93;;;1.00;57.70;;;1.64;48.13;97882.25;5005459;28;20236;-33
2021/03/08 00:45:19;;;;;;;14.03;7.87;;;1.00;57.40;;;1.64;48.24;97882.25;4988431;28;20046;-33
2021/03/08 00:47:54;;;;;;;12.17;7.97;;;1.00;57.50;;;1.64;47.90;97888.34;4988751;28;20054;-33
2021/03/08 00:50:28;;;;;;;12.03;8.07;;;1.00;56.90;;;1.66;48.85;97881.19;4987874;28;20083;-33
2021/03/08 00:52:57;;;;;;;13.37;8.70;;;1.10;57.30;;;1.65;48.50;97876.91;4987338;28;20053;-33
2021/03/08 00:55:29;;;;;;;13.23;7.23;;;1.10;57.30;;;1.64;48.82;97884.88;5007130;28;20041;-33
2021/03/08 00:57:59;;;;;;;14.03;8.47;;;1.00;57.30;;;1.62;48.92;97879.72;4989505;28;20061;-33
2021/03/08 01:00:28;;;;;;;12.10;7.43;;;1.00;57.20;;;1.59;47.86;97882.56;4993205;28;20053;-33
2021/03/08 01:03:03;;;;;;;13.43;8.57;;;0.90;57.50;;;1.57;48.62;97881.78;5017852;28;20033;-33
2021/03/08 01:05:32;;;;;;;10.77;7.53;;;0.90;57.60;;;1.54;48.13;97882.00;5025150;28;20061;-33
2021/03/08 01:08:06;;;;;;;12.80;8.10;;;0.80;57.80;;;1.51;48.88;97876.94;5007989;28;20467;-33
2021/03/08 01:10:38;;;;;;;11.40;7.50;;;0.80;57.70;;;1.46;48.53;97879.03;5025864;28;20056;-33
2021/03/08 01:13:13;;;;;;;11.90;7.40;;;0.80;57.70;;;1.45;48.58;97878.19;5007035;28;20079;-33
2021/03/08 01:15:42;;;;;;;11.93;7.13;;;0.80;57.60;;;1.45;48.78;97879.97;5022780;28;20088;-33
2021/03/08 01:18:09;;;;;;;14.00;7.73;;;0.70;57.70;;;1.41;48.40;97881.94;5007566;28;20435;-33
2021/03/08 01:20:37;;;;;;;12.63;7.50;;;0.70;57.80;;;1.37;48.79;97869.97;5026690;28;20064;-33
2021/03/08 01:23:05;;;;;;;14.43;7.87;;;0.70;57.80;;;1.34;48.59;97880.66;5006143;28;20042;-33
2021/03/08 01:25:32;;;;;;;11.33;7.50;;;0.70;57.70;;;1.33;48.96;97881.59;5024450;28;20056;-33
2021/03/08 01:28:00;;;;;;;13.73;7.93;;;0.60;57.50;;;1.31;48.65;97865.94;5025612;28;20048;-33
2021/03/08 01:30:38;;;;;;;12.67;7.33;;;0.60;57.70;;;1.31;48.39;97876.44;5024976;28;20033;-33
2021/03/08 01:33:06;;;;;;;12.00;8.10;;;0.60;58.00;;;1.29;48.42;97875.69;5025530;28;20057;-33
2021/03/08 01:35:35;;;;;;;12.80;7.67;;;0.60;57.90;;;1.26;48.31;97877.66;5023581;28;20059;-33
2021/03/08 01:38:04;;;;;;;13.67;7.73;;;0.60;57.80;;;1.24;48.49;97871.69;5023838;28;20294;-33
2021/03/08 01:40:36;;;;;;;12.40;7.60;;;0.60;57.70;;;1.23;48.84;97870.84;5024650;28;20045;-33
2021/03/08 01:43:04;;;;;;;12.07;7.53;;;0.60;58.00;;;1.21;49.43;97867.47;5024509;28;20056;-33
2021/03/08 01:45:32;;;;;;;13.13;7.33;;;0.50;58.10;;;1.18;49.04;97868.53;5025225;28;20667;-33
2021/03/08 01:48:00;;;;;;;11.77;8.37;;;0.50;58.30;;;1.15;48.57;97867.88;5025461;28;20347;-33
2021/03/08 01:50:40;;;;;;;12.23;7.90;;;0.40;57.70;;;1.15;49.20;97867.88;5024066;28;20049;-33
2021/03/08 01:53:11;;;;;;;13.73;7.70;;;0.50;58.10;;;1.15;48.67;97876.56;5024357;28;20053;-33
2021/03/08 01:55:39;;;;;;;14.37;8.97;;;0.50;58.00;;;1.14;49.08;97868.81;5023614;28;20053;-33
2021/03/08 01:58:07;;;;;;;14.63;8.30;;;0.50;58.10;;;1.15;48.80;97878.38;5024492;28;20386;-33
2021/03/08 02:00:36;;;;;;;14.67;7.70;;;0.60;57.90;;;1.15;48.67;97873.94;4990700;28;20057;-33
2021/03/08 02:03:05;;;;;;;11.63;7.73;;;0.50;57.90;;;1.16;49.42;97867.78;5012472;28;20042;-33
2021/03/08 02:05:44;;;;;;;14.07;8.07;;;0.60;57.90;;;1.20;48.75;97871.03;5015358;28;20045;-33
2021/03/08 02:08:16;;;;;;;12.53;7.70;;;0.60;58.00;;;1.20;49.64;97867.56;5012772;28;20060;-33
2021/03/08 02:10:45;;;;;;;12.50;8.33;;;0.60;58.00;;;1.14;49.29;97867.03;5012965;28;20234;-33
2021/03/08 02:13:34;;;;;;;13.20;8.07;;;0.50;59.00;;;1.14;50.13;97861.81;5013315;28;20048;-33
2021/03/08 02:16:41;;;;;;;12.30;8.03;;;0.50;59.00;;;1.14;49.34;97861.81;5009107;28;20270;-33
2021/03/08 02:20:05;;;;;;;13.80;7.53;;;0.50;59.80;;;1.13;50.01;97860.09;5004719;28;20109;-33
2021/03/08 02:23:12;;;;;;;12.67;7.77;;;0.50;60.00;;;1.13;50.39;97865.34;5005612;28;20059;-33
2021/03/08 02:26:19;;;;;;;11.03;7.20;;;0.50;59.80;;;1.12;50.42;97866.28;5003611;28;20042;-33
2021/03/08 02:28:46;;;;;;;11.93;8.07;;;0.40;60.60;;;1.09;49.77;97858.63;5006284;28;20050;-33
2021/03/08 02:31:20;;;;;;;19.37;8.00;;;0.40;60.80;;;1.03;50.16;97845.91;5004150;28;20060;-33
2021/03/08 02:34:11;;;;;;;15.50;8.10;;;0.30;60.30;;;1.06;50.65;97855.34;4988894;28;20067;-33
2021/03/08 02:36:46;;;;;;;12.73;7.87;;;0.40;60.80;;;1.04;50.34;97844.09;4970914;28;20066;-33
2021/03/08 02:39:20;;;;;;;13.37;7.53;;;0.40;61.60;;;1.03;50.40;97848.53;4986625;28;20268;-33
2021/03/08 02:41:51;;;;;;;14.73;8.52;;;0.30;60.60;;;0.96;51.47;97845.41;5004173;28;20340;-33
2021/03/08 02:44:23;;;;;;;11.97;7.93;;;0.30;62.80;;;0.92;50.44;97838.69;4987627;28;20058;-34
2021/03/08 02:46:54;;;;;;;11.33;8.47;;;0.20;61.00;;;0.94;51.20;97849.09;5003433;28;20053;-34
2021/03/08 02:49:27;;;;;;;13.30;7.20;;;0.30;61.10;;;0.90;51.32;97842.34;4986812;28;20049;-34
2021/03/08 02:52:02;;;;;;;10.77;7.82;;;0.30;61.60;;;0.92;50.83;97843.09;5004993;28;20068;-34
2021/03/08 02:54:33;;;;;;;13.70;7.93;;;0.30;61.50;;;0.93;50.76;97845.63;5009088;28;20139;-34
2021/03/08 02:57:04;;;;;;;15.00;8.03;;;0.20;61.10;;;0.91;50.83;97837.03;4990321;28;20243;-33
2021/03/08 02:59:42;;;;;;;13.10;8.23;;;0.20;61.10;;;0.92;51.05;97840.47;4991201;28;20056;-34
2021/03/08 03:02:10;;;;;;;12.70;8.17;;;0.30;61.00;;;0.91;50.47;97830.91;4990817;28;20366;-34
2021/03/08 03:04:40;;;;;;;13.50;8.07;;;0.30;60.50;;;0.91;50.38;97836.16;4990301;28;20049;-33
2021/03/08 03:07:11;;;;;;;13.80;8.60;;;0.30;60.70;;;0.88;50.30;97834.59;4990998;28;20046;-33
2021/03/08 03:09:41;;;;;;;16.27;9.13;;;0.20;61.00;;;0.86;50.69;97844.31;4991513;28;20061;-33
2021/03/08 03:12:12;;;;;;;13.23;9.40;;;0.20;60.70;;;0.85;50.43;97849.66;4989775;28;20065;-34
2021/03/08 03:14:43;;;;;;;13.10;9.27;;;0.20;61.30;;;0.83;50.65;97846.28;4990898;28;20053;-34
2021/03/08 03:17:15;;;;;;;16.93;9.53;;;0.10;61.20;;;0.80;50.90;97849.94;4992898;28;20046;-34
2021/03/08 03:19:50;;;;;;;14.80;9.47;;;0.10;61.20;;;0.77;50.79;97850.97;5007883;28;20076;-34
2021/03/08 03:22:23;;;;;;;13.17;8.53;;;0.10;61.20;;;0.74;50.94;97858.19;4990200;28;20053;-33
2021/03/08 03:24:54;;;;;;;16.30;9.20;;;0.10;62.00;;;0.72;51.38;97855.66;4989248;28;20057;-33
2021/03/08 03:27:27;;;;;;;17.37;9.10;;;0.10;61.40;;;0.71;51.41;97858.38;4991247;28;20437;-34
2021/03/08 03:29:55;;;;;;;14.23;8.53;;;0.00;61.60;;;0.69;50.65;97860.25;4990185;28;20061;-33
2021/03/08 03:32:24;;;;;;;14.47;8.60;;;0.00;61.30;;;0.68;50.83;97867.28;4990627;28;20084;-33
2021/03/08 03:34:53;;;;;;;13.07;8.53;;;0.10;61.20;;;0.67;50.58;97865.59;4989884;28;20053;-33
2021/03/08 03:37:25;;;;;;;15.30;7.70;;;0.10;61.30;;;0.67;51.74;97870.00;5006958;28;20053;-34
2021/03/08 03:39:53;;;;;;;13.07;7.97;;;0.10;61.70;;;0.66;51.36;97865.66;5007919;28;20050;-33
2021/03/08 03:42:21;;;;;;;15.30;9.53;;;0.00;62.90;;;0.68;51.09;97863.78;5007766;28;20060;-33
2021/03/08 03:44:48;;;;;;;14.27;8.77;;;0.00;62.00;;;0.66;51.87;97865.66;4990140;28;20366;-33
2021/03/08 03:47:16;;;;;;;17.27;9.83;;;0.00;62.10;;;0.66;51.62;97870.91;5006051;28;20225;-33
2021/03/08 03:49:44;;;;;;;14.20;8.83;;;0.00;61.80;;;0.67;51.30;97881.31;5006710;28;20049;-33
2021/03/08 03:52:12;;;;;;;16.47;8.93;;;0.10;62.10;;;0.68;51.14;97871.66;5008113;28;20049;-33
2021/03/08 03:54:39;;;;;;;16.73;9.93;;;0.00;61.80;;;0.69;51.82;97873.34;5008625;28;20427;-34
2021/03/08 03:57:10;;;;;;;13.83;8.83;;;0.10;61.70;;;0.69;51.47;97876.81;5007028;28;20052;-33
2021/03/08 03:59:54;;;;;;;14.00;8.60;;;0.10;61.60;;;0.66;52.09;97876.16;4990836;28;20373;-33
2021/03/08 04:02:37;;;;;;;13.75;8.88;;;0.00;63.00;;;0.64;51.78;97878.03;4991803;28;20045;-33
2021/03/08 04:05:06;;;;;;;13.07;8.53;;;0.00;62.80;;;0.64;51.15;97883.25;5006137;28;20064;-33
2021/03/08 04:07:38;;;;;;;13.73;8.63;;;0.00;62.30;;;0.61;51.58;97871.19;4989535;28;20243;-33
2021/03/08 04:10:09;;;;;;;13.87;7.83;;;0.00;62.10;;;0.59;51.42;97881.75;4991652;28;20050;-33
2021/03/08 04:12:39;;;;;;;14.17;8.63;;;-0.10;62.30;;;0.58;51.57;97887.09;5006153;28;20065;-33
2021/03/08 04:15:09;;;;;;;10.90;8.00;;;-0.10;62.50;;;0.56;52.21;97891.59;4990193;28;20064;-33
2021/03/08 04:17:41;;;;;;;12.10;7.87;;;-0.10;62.50;;;0.52;51.52;97890.09;5007809;28;20064;-33
2021/03/08 04:20:17;;;;;;;15.07;8.37;;;-0.10;62.70;;;0.52;51.61;97896.16;4989951;28;20213;-33
2021/03/08 04:22:54;;;;;;;12.73;8.27;;;-0.20;63.00;;;0.46;51.54;97898.31;4988915;28;20061;-33
2021/03/08 04:25:22;;;;;;;17.03;9.20;;;-0.30;63.60;;;0.39;51.57;97905.72;5006781;28;20475;-33
2021/03/08 04:27:51;;;;;;;14.37;8.73;;;-0.40;63.10;;;0.34;52.19;97902.53;5006288;28;20058;-33
2021/03/08 04:30:19;;;;;;;18.00;9.93;;;-0.40;63.20;;;0.30;52.04;97899.25;5006255;28;20058;-33
2021/03/08 04:32:51;;;;;;;14.57;9.20;;;-0.40;63.40;;;0.26;51.83;97908.22;5007460;28;20049;-33
2021/03/08 04:35:25;;;;;;;15.90;9.23;;;-0.50;64.30;;;0.22;52.47;97901.47;4989755;28;20050;-33
2021/03/08 04:37:55;;;;;;;13.38;7.95;;;-0.50;64.20;;;0.19;51.97;97905.13;4990652;28;20054;-33
2021/03/08 04:40:24;;;;;;;16.03;9.00;;;-0.50;64.00;;;0.16;52.46;97907.06;4989755;28;20053;-33
2021/03/08 04:42:52;;;;;;;19.47;10.30;;;-0.60;63.90;;;0.14;52.35;97907.16;5005570;28;20340;-33
2021/03/08 04:45:20;;;;;;;16.57;10.17;;;-0.60;63.90;;;0.11;52.14;97916.97;4987670;28;20046;-33
2021/03/08 04:47:50;;;;;;;13.17;8.17;;;-0.60;64.20;;;0.10;52.48;97908.28;5005192;28;20062;-33
2021/03/08 04:50:18;;;;;;;16.33;9.70;;;-0.60;63.90;;;0.09;52.27;97916.22;5005218;28;20050;-33
2021/03/08 04:52:50;;;;;;;12.83;8.70;;;-0.60;64.30;;;0.07;53.01;97911.06;4972002;28;20050;-33
2021/03/08 04:55:20;;;;;;;15.00;8.50;;;-0.60;64.50;;;0.06;52.35;97916.38;5005303;28;20049;-33
2021/03/08 04:57:47;;;;;;;12.73;8.13;;;-0.60;65.10;;;0.05;52.79;97915.53;4988213;28;20255;-33
2021/03/08 05:00:17;;;;;;;17.20;7.97;;;-0.60;64.30;;;0.03;52.83;97917.41;5004114;28;20233;-34
2021/03/08 05:02:45;;;;;;;15.83;8.60;;;-0.60;64.20;;;0.01;52.45;97919.28;4985638;28;20342;-33
2021/03/08 05:05:20;;;;;;;13.73;8.47;;;-0.70;64.60;;;-0.01;52.88;97918.53;5005718;28;20064;-33
2021/03/08 05:07:52;;;;;;;13.23;8.67;;;-0.70;64.30;;;-0.03;52.99;97913.38;4989413;28;20243;-33
2021/03/08 05:10:20;;;;;;;12.37;8.27;;;-0.70;64.30;;;-0.04;52.41;97921.31;4989559;28;20046;-33
2021/03/08 05:12:51;;;;;;;15.63;8.93;;;-0.70;64.40;;;-0.06;53.21;97915.31;4989045;28;20061;-33
2021/03/08 05:15:20;;;;;;;15.30;8.60;;;-0.70;64.60;;;-0.08;52.91;97923.28;4989303;28;20247;-33
2021/03/08 05:17:56;;;;;;;16.57;8.33;;;-0.80;64.70;;;-0.09;52.66;97923.38;4989071;28;20128;-33
2021/03/08 05:20:25;;;;;;;14.20;9.00;;;-0.80;64.70;;;-0.13;52.91;97927.91;4989167;28;20053;-33
2021/03/08 05:23:00;;;;;;;18.10;10.27;;;-0.80;64.40;;;-0.16;52.85;97928.09;5004490;28;20044;-33
2021/03/08 05:25:29;;;;;;;20.77;9.13;;;-0.80;64.70;;;-0.15;52.50;97924.56;5005025;28;20053;-33
2021/03/08 05:27:59;;;;;;;16.73;9.90;;;-0.80;64.20;;;-0.16;53.08;97928.09;5005533;28;20056;-33
2021/03/08 05:30:27;;;;;;;21.00;10.07;;;-0.80;64.60;;;-0.17;52.73;97923.78;5014921;23;20336;-34
2021/03/08 05:33:31;;;;;;;17.90;10.13;;;-0.80;64.70;;;-0.19;52.55;97928.28;4998562;28;20161;-34
2021/03/08 05:36:02;;;;;;;18.52;9.95;;;-0.90;65.50;;;-0.21;52.71;97928.34;4986431;28;20058;-34
2021/03/08 05:38:32;;;;;;;16.70;9.20;;;-0.80;64.40;;;-0.20;52.90;97931.81;4986403;28;20054;-34
2021/03/08 05:41:32;;;;;;;16.87;10.00;;;-0.80;64.50;;;-0.20;53.11;97932.66;5002361;28;20046;-34
2021/03/08 05:44:06;;;;;;;12.83;8.60;;;-0.80;64.70;;;-0.20;53.14;97934.44;4987296;28;20061;-34
2021/03/08 05:46:55;;;;;;;18.43;10.07;;;-0.80;64.20;;;-0.22;53.24;97936.28;4985339;28;20050;-34
2021/03/08 05:50:10;;;;;;;14.23;9.13;;;-0.90;64.40;;;-0.26;52.98;97935.63;4985154;28;20046;-34
2021/03/08 05:53:38;;;;;;;20.60;9.07;;;-0.90;64.50;;;-0.29;52.96;97934.94;4972334;28;20062;-34
2021/03/08 05:56:34;;;;;;;20.37;9.23;;;-0.90;65.80;;;-0.32;53.02;97935.97;4984850;28;20058;-34
2021/03/08 05:59:42;;;;;;;18.10;8.70;;;-0.90;65.20;;;-0.31;53.53;97934.19;4985110;28;20283;-35
2021/03/08 06:03:05;;;;;;;21.47;9.83;;;-0.90;65.10;;;-0.31;53.04;97934.19;4986746;28;20050;-34
2021/03/08 06:06:20;;;;;;;22.07;9.37;;;-0.90;65.90;;;-0.35;53.40;97941.38;4985524;28;20050;-34
2021/03/08 06:09:19;;;;;;;20.10;10.57;;;-0.90;66.30;;;-0.34;53.40;97942.22;4997859;28;20068;-34
2021/03/08 06:11:58;;;;;;;17.33;11.17;;;-1.00;66.20;;;-0.36;53.84;97941.47;4986116;28;20062;-34
2021/03/08 06:14:34;;;;;;;17.07;10.93;;;-1.00;65.60;;;-0.35;53.06;97941.38;4985604;28;20240;-34
2021/03/08 06:17:02;;;;;;;16.27;9.70;;;-1.00;65.70;;;-0.34;53.85;97939.59;4986032;28;20060;-34
2021/03/08 06:19:30;;;;;;;17.50;10.93;;;-1.00;65.90;;;-0.32;53.92;97935.13;4999569;28;20054;-34
2021/03/08 06:22:00;;;;;;;17.10;9.60;;;-1.00;66.20;;;-0.31;53.40;97945.50;5000159;28;20054;-34
2021/03/08 06:24:28;;;;;;;18.50;10.53;;;-1.10;66.90;;;-0.31;53.92;97944.66;5000275;28;20042;-34
2021/03/08 06:27:00;;;;;;;18.73;10.47;;;-1.00;66.20;;;-0.32;54.09;97953.44;5003339;28;20378;-34
2021/03/08 06:29:29;;;;;;;15.83;9.50;;;-0.90;66.80;;;-0.32;53.92;97950.81;4989126;28;20058;-34
2021/03/08 06:31:57;;;;;;;20.70;13.63;;;-1.00;66.10;;;-0.29;54.31;97958.50;5003649;28;20054;-34
2021/03/08 06:34:25;;;;;;;22.50;12.27;;;-0.90;66.00;;;-0.28;53.85;97962.81;5004121;28;20054;-35
2021/03/08 06:36:54;;;;;;;23.47;13.23;;;-0.80;65.80;;;-0.25;54.39;97960.88;4989197;28;20058;-35
2021/03/08 06:39:21;;;;;;;22.23;12.23;;;-0.80;66.00;;;-0.18;54.29;97968.38;4988808;28;20058;-35
2021/03/08 06:41:49;;;;;;;22.97;12.97;;;-0.80;66.00;;;-0.17;54.08;97972.69;4989908;28;20058;-35
2021/03/08 06:44:18;;;;;;;47.43;20.93;;;-0.70;65.60;;;-0.16;53.83;97972.56;4988385;28;20244;-35
2021/03/08 06:46:45;;;;;;;40.97;18.93;;;-0.70;65.80;;;-0.12;54.23;97979.31;4989273;28;20056;-35
2021/03/08 06:49:13;;;;;;;29.33;14.43;;;-0.60;65.40;;;-0.06;54.05;97981.63;4989214;28;20057;-35
2021/03/08 06:52:04;;;;;;;25.30;14.30;;;-0.50;65.20;;;0.01;54.46;97979.47;5002564;28;20046;-35
2021/03/08 06:54:34;;;;;;;26.23;14.23;;;-0.40;66.50;;;0.04;54.31;97981.06;4989187;28;20462;-34
2021/03/08 06:57:22;;;;;;;23.47;13.10;;;-0.40;65.50;;;0.08;54.56;97983.44;4987977;28;20073;-35
2021/03/08 07:00:00;;;;;;;18.47;10.60;;;-0.40;65.30;;;0.13;53.93;97985.78;4988532;28;20074;-35
2021/03/08 07:02:45;;;;;;;14.63;9.37;;;-0.30;65.40;;;0.16;54.32;97988.25;4990181;28;20054;-35
2021/03/08 07:05:22;;;;;;;14.75;9.52;;;-0.30;66.30;;;0.18;54.76;97989.00;4988262;28;20061;-35
2021/03/08 07:07:59;;;;;;;14.83;9.50;;;-0.30;66.10;;;0.19;55.01;97995.91;4987741;28;20076;-35
2021/03/08 07:10:40;;;;;;;18.00;10.07;;;-0.30;66.20;;;0.18;55.76;97991.63;5002384;28;20385;-35
2021/03/08 07:13:10;;;;;;;19.80;11.97;;;-0.40;67.30;;;0.16;55.12;97998.72;4988816;28;20483;-35
2021/03/08 07:16:01;;;;;;;16.93;10.43;;;-0.40;67.80;;;0.16;55.60;98003.97;5003221;28;20042;-35
2021/03/08 07:18:29;;;;;;;21.07;11.30;;;-0.40;68.50;;;0.17;55.43;98005.63;4987312;28;20240;-35
2021/03/08 07:21:12;;;;;;;17.50;10.07;;;-0.40;67.40;;;0.19;56.26;98020.34;4988197;28;20324;-35
2021/03/08 07:23:41;;;;;;;18.30;10.70;;;-0.30;68.50;;;0.17;56.65;98016.09;4988561;28;20354;-35
2021/03/08 07:26:11;;;;;;;18.23;10.23;;;-0.30;69.00;;;0.20;55.80;98015.94;4988538;28;20060;-35
2021/03/08 07:28:40;;;;;;;16.47;10.17;;;-0.30;67.60;;;0.26;56.19;98014.75;4987113;28;20049;-34
2021/03/08 07:31:28;;;;;;;20.87;11.33;;;-0.20;67.20;;;0.32;55.85;98017.00;4987835;28;20050;-34
2021/03/08 07:34:01;;;;;;;18.10;11.13;;;-0.10;66.80;;;0.40;56.37;98017.41;4987100;28;20050;-34
2021/03/08 07:36:29;;;;;;;18.83;11.45;;;0.00;66.40;;;0.48;55.22;98027.44;4987103;28;20042;-34
2021/03/08 07:38:57;;;;;;;18.73;12.37;;;0.10;65.80;;;0.54;55.66;98027.06;5002878;28;20343;-34
2021/03/08 07:41:24;;;;;;;22.83;12.90;;;0.20;65.90;;;0.61;55.42;98032.81;4987042;28;20066;-34
2021/03/08 07:44:07;;;;;;;18.87;10.00;;;0.20;65.70;;;0.65;55.76;98026.47;4987382;28;20058;-34
2021/03/08 07:46:36;;;;;;;23.43;12.40;;;0.30;66.60;;;0.69;55.95;98030.59;4987333;28;20042;-34
2021/03/08 07:49:07;;;;;;;23.60;10.73;;;0.30;65.90;;;0.73;56.01;98027.69;4987224;28;20296;-34
2021/03/08 07:51:35;;;;;;;15.00;9.93;;;0.40;65.60;;;0.79;54.85;98036.97;4987500;28;20055;-34
2021/03/08 07:54:09;;;;;;;17.63;9.77;;;0.40;65.40;;;0.83;55.65;98033.22;4988164;28;20359;-34
2021/03/08 07:56:36;;;;;;;17.10;9.48;;;0.40;65.80;;;0.86;55.46;98029.59;4986950;28;20058;-34
2021/03/08 07:59:04;;;;;;;19.43;9.97;;;0.50;65.70;;;0.90;55.64;98034.56;4988367;28;20057;-34
2021/03/08 08:01:31;;;;;;;21.90;10.90;;;0.60;65.60;;;0.95;55.05;98034.28;4985329;28;20244;-34
2021/03/08 08:03:59;;;;;;;14.93;9.53;;;0.60;65.60;;;1.00;55.38;98032.22;4986299;28;20038;-34
2021/03/08 08:06:28;;;;;;;16.80;9.67;;;0.60;64.90;;;1.03;55.25;98028.56;4986481;28;20052;-33
2021/03/08 08:08:56;;;;;;;12.93;9.17;;;0.70;64.80;;;1.05;54.75;98027.56;5002690;28;20385;-34
2021/03/08 08:11:28;;;;;;;15.97;9.27;;;0.70;64.70;;;1.10;55.48;98029.91;4988354;28;20064;-34
2021/03/08 08:14:00;;;;;;;17.17;9.67;;;0.80;64.90;;;1.14;55.18;98028.78;4988847;28;20447;-34
2021/03/08 08:16:32;;;;;;;14.97;9.57;;;0.80;64.70;;;1.17;55.05;98034.69;4987150;28;20252;-34
2021/03/08 08:19:08;;;;;;;14.80;8.47;;;0.80;64.60;;;1.22;54.70;98030.94;4987239;28;20054;-35
2021/03/08 08:21:44;;;;;;;18.23;9.53;;;0.90;64.60;;;1.26;55.39;98035.91;4983882;28;20058;-34
2021/03/08 08:24:23;;;;;;;16.63;8.83;;;1.00;64.30;;;1.28;54.60;98043.66;4988022;28;20344;-35
2021/03/08 08:26:58;;;;;;;15.07;8.67;;;1.00;64.40;;;1.31;54.68;98030.38;5003555;28;20054;-35
2021/03/08 08:29:27;;;;;;;16.07;9.70;;;1.00;64.30;;;1.34;55.70;98028.41;4993664;28;20039;-35
2021/03/08 08:32:04;;;;;;;17.53;9.70;;;1.00;64.60;;;1.38;54.62;98034.31;5002835;28;20060;-34
2021/03/08 08:34:38;;;;;;;17.20;9.23;;;1.00;64.50;;;1.38;54.96;98031.69;4984263;28;20057;-34
2021/03/08 08:37:13;;;;;;;13.50;8.65;;;1.10;64.50;;;1.42;55.66;98027.13;4983118;28;20046;-35
2021/03/08 08:39:52;;;;;;;17.47;9.20;;;1.10;64.60;;;1.43;54.99;98034.84;4984655;28;20055;-34
2021/03/08 08:42:29;;;;;;;14.70;9.23;;;1.10;65.10;;;1.44;55.04;98031.31;4983420;28;20122;-34
2021/03/08 08:45:31;;;;;;;15.10;9.23;;;1.10;65.50;;;1.48;54.97;98035.44;4990193;28;20362;-34
2021/03/08 08:48:06;;;;;;;14.80;9.20;;;1.20;65.20;;;1.51;55.21;98031.75;5003296;28;20051;-35
2021/03/08 08:50:50;;;;;;;15.13;9.90;;;1.20;64.80;;;1.58;55.63;98036.53;5001566;28;20060;-34
2021/03/08 08:53:36;;;;;;;13.93;9.60;;;1.30;65.00;;;1.68;55.01;98034.19;5003104;28;20050;-34
2021/03/08 08:56:08;;;;;;;18.20;9.27;;;1.40;64.90;;;1.74;55.10;98027.72;5003769;28;20050;-35
2021/03/08 08:58:48;;;;;;;14.53;8.33;;;1.50;64.20;;;1.82;55.08;98035.09;5003057;28;20366;-35
2021/03/08 09:01:49;;;;;;;13.70;9.00;;;1.60;64.10;;;1.87;54.89;98038.28;5002657;28;20046;-34
2021/03/08 09:04:13;;;;;;;16.43;9.97;;;1.60;63.60;;;1.91;54.56;98037.97;5002733;28;20061;-34
2021/03/08 09:06:54;;;;;;;14.43;9.02;;;1.60;63.60;;;1.97;55.09;98039.38;5003264;28;20327;-34
2021/03/08 09:09:47;;;;;;;18.10;9.57;;;1.70;63.60;;;2.04;54.88;98045.94;5001650;28;20069;-35
2021/03/08 09:12:43;;;;;;;14.97;8.50;;;1.80;63.80;;;2.09;55.03;98046.47;5002493;28;20050;-34
2021/03/08 09:15:24;;;;;;;14.33;8.17;;;1.90;63.40;;;2.14;55.13;98039.13;5018110;28;20068;-34
2021/03/08 09:17:56;;;;;;;14.40;8.60;;;1.90;63.00;;;2.19;54.31;98038.88;5017499;28;20058;-34
2021/03/08 09:20:30;;;;;;;14.30;8.97;;;2.00;62.80;;;2.25;54.51;98040.22;5003214;28;20054;-34
2021/03/08 09:23:01;;;;;;;23.48;11.88;;;2.00;62.60;;;2.29;54.41;98044.38;5002882;28;20058;-35
2021/03/08 09:25:33;;;;;;;14.37;9.10;;;2.10;62.70;;;2.34;54.31;98037.84;5017865;28;20124;-34
2021/03/08 09:28:11;;;;;;;23.70;12.37;;;2.10;62.30;;;2.32;54.25;98041.53;5000518;28;20072;-35
2021/03/08 09:30:46;;;;;;;18.83;10.93;;;2.10;61.90;;;2.31;54.52;98040.69;4996244;28;20213;-34
2021/03/08 09:33:19;;;;;;;19.13;9.13;;;2.10;61.80;;;2.32;53.95;98041.53;5002678;28;20057;-34
2021/03/08 09:35:57;;;;;;;13.67;9.63;;;2.10;62.30;;;2.34;54.26;98034.38;5017056;28;20050;-35
2021/03/08 09:38:26;;;;;;;15.07;9.83;;;2.10;62.00;;;2.35;53.84;98039.53;5003033;28;20050;-35
2021/03/08 09:40:58;;;;;;;12.83;8.53;;;2.20;61.40;;;2.41;54.25;98040.09;5002983;28;20050;-35
2021/03/08 09:43:31;;;;;;;12.90;8.13;;;2.30;61.40;;;2.48;53.78;98044.84;5017050;28;20056;-35
2021/03/08 09:46:10;;;;;;;13.40;8.30;;;2.30;61.20;;;2.54;53.93;98041.81;5002785;28;20243;-35
2021/03/08 09:48:41;;;;;;;12.20;8.60;;;2.40;61.10;;;2.59;53.88;98040.66;5001901;28;20042;-35
2021/03/08 09:51:19;;;;;;;12.53;8.17;;;2.50;61.10;;;2.66;54.10;98036.69;5002133;28;20046;-35
2021/03/08 09:53:50;;;;;;;12.73;8.70;;;2.50;60.60;;;2.72;53.83;98039.75;5001940;28;20327;-35
2021/03/08 09:56:23;;;;;;;12.27;7.80;;;2.60;60.50;;;2.79;53.59;98036.69;5002072;28;20050;-35
2021/03/08 09:59:08;;;;;;;13.50;8.47;;;2.60;60.10;;;2.82;53.79;98032.06;5002722;28;20054;-35
2021/03/08 10:01:36;;;;;;;11.73;8.20;;;2.70;60.70;;;2.87;53.37;98043.13;5001240;28;20046;-35
2021/03/08 10:04:05;;;;;;;14.43;8.80;;;2.70;60.60;;;2.90;52.81;98044.72;5000204;28;20404;-35
2021/03/08 10:06:45;;;;;;;12.17;8.10;;;2.70;60.20;;;2.91;53.38;98028.84;4997749;28;20050;-35
2021/03/08 10:09:20;;;;;;;15.13;9.63;;;2.70;60.50;;;2.97;53.11;98027.56;5014063;28;20061;-35
2021/03/08 10:11:58;;;;;;;12.10;9.43;;;2.80;60.40;;;3.01;52.65;98033.47;5002388;28;20056;-35
2021/03/08 10:14:28;;;;;;;13.80;7.37;;;2.90;60.10;;;3.03;52.64;98027.16;5002014;28;20374;-35
2021/03/08 10:17:13;;;;;;;10.60;7.40;;;3.00;59.10;;;3.05;51.30;98024.44;5002548;28;20084;-35
2021/03/08 10:19:54;;;;;;;11.27;7.32;;;3.00;57.70;;;3.10;52.36;98024.94;5001262;28;20064;-35
2021/03/08 10:22:36;;;;;;;13.23;7.10;;;3.00;57.60;;;3.11;51.72;98030.09;5001621;28;20390;-35
2021/03/08 10:25:30;;;;;;;14.77;8.73;;;3.00;57.60;;;3.15;50.45;98028.94;4999989;28;20070;-35
2021/03/08 10:28:04;;;;;;;10.90;6.75;;;3.10;56.70;;;3.21;51.41;98026.84;5002946;28;20062;-35
2021/03/08 10:30:34;;;;;;;10.33;6.50;;;3.10;57.10;;;3.22;51.50;98021.47;5013383;28;20149;-35
2021/03/08 10:33:15;;;;;;;9.07;6.43;;;3.20;56.80;;;3.28;51.17;98025.47;5000942;28;20050;-35
2021/03/08 10:35:53;;;;;;;12.73;6.60;;;3.20;56.00;;;3.33;51.32;98025.97;5016837;28;20046;-35
2021/03/08 10:38:32;;;;;;;10.07;6.70;;;3.20;56.60;;;3.40;50.51;98019.34;5015841;28;20058;-35
2021/03/08 10:41:05;;;;;;;11.83;6.77;;;3.30;56.30;;;3.47;50.51;98023.25;5016928;28;20220;-35
2021/03/08 10:43:33;;;;;;;12.03;7.20;;;3.40;56.60;;;3.54;51.36;98016.59;4999100;28;20060;-35
2021/03/08 10:46:02;;;;;;;11.80;7.60;;;3.50;57.10;;;3.60;51.02;98019.75;5000361;28;20046;-35
2021/03/08 10:48:30;;;;;;;10.63;7.03;;;3.60;56.80;;;3.67;50.50;98021.00;5015229;28;20340;-35
2021/03/08 10:50:59;;;;;;;12.17;6.73;;;3.70;55.60;;;3.69;50.62;98019.09;5001089;28;20050;-35
2021/03/08 10:54:04;;;;;;;9.23;5.00;;;3.70;56.10;;;3.67;47.57;98027.09;5001825;28;20050;-35